createdAt,value
2019-02-17T00:01:18.713Z,21.43
2019-02-17T00:03:50.586Z,23.95
2019-02-17T00:06:23.363Z,22.05
2019-02-17T00:08:55.227Z,21.17
2019-02-17T00:11:27.095Z,21.95
2019-02-17T00:13:59.943Z,18.60
2019-02-17T00:16:31.832Z,19.02
2019-02-17T00:19:03.687Z,20.50
2019-02-17T00:21:35.544Z,22.13
2019-02-17T00:24:07.422Z,22.00
2019-02-17T00:26:39.256Z,21.33
2019-02-17T00:29:11.115Z,18.60
2019-02-17T00:31:42.960Z,18.98
2019-02-17T00:34:14.831Z,23.18
2019-02-17T00:36:46.681Z,16.82
2019-02-17T00:39:18.717Z,18.50
2019-02-17T00:41:50.658Z,21.12
2019-02-17T00:44:22.529Z,19.17
2019-02-17T00:46:54.367Z,18.37
2019-02-17T00:49:28.314Z,18.35
2019-02-17T00:52:00.220Z,19.65
2019-02-17T00:54:32.098Z,20.15
2019-02-17T00:57:03.929Z,20.15
2019-02-17T00:59:35.763Z,23.90
2019-02-17T01:02:07.622Z,20.37
2019-02-17T01:04:39.507Z,17.65
2019-02-17T01:07:11.348Z,20.55
2019-02-17T01:09:43.211Z,19.82
2019-02-17T01:12:15.063Z,22.95
2019-02-17T01:14:46.894Z,20.50
2019-02-17T01:17:18.761Z,21.07
2019-02-17T01:19:50.654Z,17.57
2019-02-17T01:22:22.517Z,20.68
2019-02-17T01:24:54.337Z,19.90
2019-02-17T01:27:26.180Z,21.17
2019-02-17T01:29:58.012Z,22.60
2019-02-17T01:32:29.856Z,23.73
2019-02-17T01:35:01.681Z,20.72
2019-02-17T01:37:33.522Z,20.85
2019-02-17T01:40:06.551Z,20.50
2019-02-17T01:42:38.387Z,20.27
2019-02-17T01:45:11.883Z,19.10
2019-02-17T01:47:44.691Z,19.00
2019-02-17T01:50:16.525Z,18.80
2019-02-17T01:52:48.390Z,23.05
2019-02-17T01:55:20.242Z,18.80
2019-02-17T01:57:52.107Z,25.17
2019-02-17T02:00:23.977Z,21.00
2019-02-17T02:02:55.836Z,18.95
2019-02-17T02:05:27.791Z,22.02
2019-02-17T02:07:59.858Z,19.95
2019-02-17T02:10:33.316Z,20.60
2019-02-17T02:13:05.217Z,20.55
2019-02-17T02:15:38.335Z,19.23
2019-02-17T02:18:10.212Z,19.45
2019-02-17T02:20:42.268Z,19.40
2019-02-17T02:23:15.644Z,19.60
2019-02-17T02:25:47.514Z,20.37
2019-02-17T02:28:20.840Z,20.90
2019-02-17T02:30:52.701Z,17.60
2019-02-17T02:33:24.599Z,21.20
2019-02-17T02:35:56.467Z,21.17
2019-02-17T02:38:29.385Z,17.40
2019-02-17T02:41:01.959Z,17.00
2019-02-17T02:43:33.780Z,18.77
2019-02-17T02:46:05.646Z,18.05
2019-02-17T02:48:37.756Z,25.60
2019-02-17T02:51:09.611Z,20.37
2019-02-17T02:53:41.468Z,25.60
2019-02-17T02:56:13.335Z,18.32
2019-02-17T02:58:45.191Z,17.92
2019-02-17T03:01:17.095Z,18.32
2019-02-17T03:03:49.055Z,20.80
2019-02-17T03:06:28.095Z,19.92
2019-02-17T03:08:59.948Z,16.75
2019-02-17T03:11:31.795Z,18.42
2019-02-17T03:14:03.669Z,20.77
2019-02-17T03:16:35.514Z,22.50
2019-02-17T03:19:10.441Z,22.90
2019-02-17T03:21:42.308Z,20.52
2019-02-17T03:24:14.153Z,23.00
2019-02-17T03:26:46.005Z,21.12
2019-02-17T03:29:17.846Z,18.90
2019-02-17T03:31:49.728Z,20.48
2019-02-17T03:34:23.352Z,21.05
2019-02-17T03:36:55.198Z,19.75
2019-02-17T03:39:30.084Z,20.40
2019-02-17T03:42:02.167Z,19.90
2019-02-17T03:44:33.997Z,18.55
2019-02-17T03:47:05.860Z,19.55
2019-02-17T03:49:37.701Z,21.42
2019-02-17T03:52:09.567Z,16.52
2019-02-17T03:54:41.398Z,19.75
2019-02-17T03:57:13.284Z,19.92
2019-02-17T03:59:45.122Z,17.73
2019-02-17T04:02:16.961Z,20.25
2019-02-17T04:04:48.834Z,16.87
2019-02-17T04:07:20.704Z,24.02
2019-02-17T04:09:52.793Z,21.77
2019-02-17T04:12:24.758Z,22.32
2019-02-17T04:14:56.601Z,19.25
2019-02-17T04:17:28.648Z,23.10
2019-02-17T04:20:00.515Z,16.00
2019-02-17T04:22:32.369Z,20.02
2019-02-17T04:25:04.196Z,21.20
2019-02-17T04:27:36.071Z,21.87
2019-02-17T04:30:08.865Z,22.05
2019-02-17T04:32:40.696Z,17.60
2019-02-17T04:35:13.593Z,20.80
2019-02-17T04:37:45.507Z,17.20
2019-02-17T04:40:18.460Z,17.92
2019-02-17T04:42:50.314Z,20.68
2019-02-17T04:45:22.188Z,20.08
2019-02-17T04:47:57.142Z,17.32
2019-02-17T04:50:28.972Z,21.45
2019-02-17T04:53:00.792Z,22.20
2019-02-17T04:55:32.639Z,21.33
2019-02-17T04:58:04.480Z,18.77
2019-02-17T05:00:40.106Z,20.52
2019-02-17T05:03:09.840Z,18.40
2019-02-17T05:05:41.701Z,19.70
2019-02-17T05:08:13.527Z,20.40
2019-02-17T05:10:45.385Z,18.35
2019-02-17T05:13:17.218Z,22.98
2019-02-17T05:15:49.071Z,21.87
2019-02-17T05:18:20.892Z,23.80
2019-02-17T05:20:52.786Z,17.87
2019-02-17T05:23:24.580Z,16.73
2019-02-17T05:25:56.456Z,19.12
2019-02-17T05:28:28.273Z,19.20
2019-02-17T05:31:00.140Z,19.35
2019-02-17T05:33:31.959Z,19.35
2019-02-17T05:36:03.818Z,19.52
2019-02-17T05:38:35.652Z,20.88
2019-02-17T05:41:07.514Z,19.42
2019-02-17T05:43:42.432Z,20.60
2019-02-17T05:46:16.167Z,20.15
2019-02-17T05:48:48.000Z,22.45
2019-02-17T05:51:19.852Z,19.23
2019-02-17T05:53:53.422Z,20.37
2019-02-17T05:56:25.230Z,21.52
2019-02-17T05:58:57.051Z,20.72
2019-02-17T06:01:28.921Z,23.05
2019-02-17T06:04:00.755Z,25.60
2019-02-17T06:06:32.610Z,23.65
2019-02-17T06:09:05.356Z,23.75
2019-02-17T06:11:38.742Z,22.20
2019-02-17T06:14:10.591Z,23.57
2019-02-17T06:16:42.434Z,22.02
2019-02-17T06:19:14.297Z,26.02
2019-02-17T06:21:46.107Z,23.75
2019-02-17T06:24:17.948Z,19.60
2019-02-17T06:26:51.619Z,21.30
2019-02-17T06:29:27.439Z,21.20
2019-02-17T06:31:59.270Z,22.50
2019-02-17T06:34:31.096Z,24.82
2019-02-17T06:37:02.912Z,25.75
2019-02-17T06:39:34.773Z,23.67
2019-02-17T06:42:06.612Z,23.92
2019-02-17T06:44:38.515Z,22.48
2019-02-17T06:47:16.634Z,22.70
2019-02-17T06:49:48.478Z,23.90
2019-02-17T06:52:20.300Z,23.57
2019-02-17T06:55:19.184Z,20.30
2019-02-17T06:57:51.001Z,22.22
2019-02-17T07:00:27.292Z,25.45
2019-02-17T07:02:59.110Z,25.32
2019-02-17T07:05:56.667Z,22.52
2019-02-17T07:08:28.263Z,23.52
2019-02-17T07:11:00.114Z,26.05
2019-02-17T07:13:32.034Z,29.30
2019-02-17T07:16:03.895Z,27.87
2019-02-17T07:18:35.734Z,24.57
2019-02-17T07:21:07.591Z,20.80
2019-02-17T07:23:39.439Z,24.43
2019-02-17T07:26:11.316Z,22.95
2019-02-17T07:28:43.150Z,23.92
2019-02-17T07:31:16.329Z,25.77
2019-02-17T07:33:48.133Z,22.10
2019-02-17T07:36:21.942Z,23.50
2019-02-17T07:38:53.518Z,20.45
2019-02-17T07:41:25.100Z,25.30
2019-02-17T07:43:56.987Z,22.05
2019-02-17T07:46:28.929Z,22.93
2019-02-17T07:49:01.105Z,22.62
2019-02-17T07:51:32.929Z,23.95
2019-02-17T07:54:04.799Z,26.52
2019-02-17T07:56:36.617Z,25.40
2019-02-17T07:59:08.190Z,22.87
2019-02-17T08:01:45.194Z,23.35
2019-02-17T08:04:13.580Z,23.77
2019-02-17T08:06:45.124Z,25.20
2019-02-17T08:09:16.962Z,25.23
2019-02-17T08:11:48.795Z,26.87
2019-02-17T08:14:20.684Z,24.85
2019-02-17T08:16:52.569Z,24.37
2019-02-17T08:19:24.408Z,28.60
2019-02-17T08:21:55.964Z,26.67
2019-02-17T08:24:27.535Z,31.70
2019-02-17T08:26:59.409Z,24.80
2019-02-17T08:29:31.273Z,41.15
2019-02-17T08:32:02.905Z,33.60
2019-02-17T08:34:34.476Z,30.67
2019-02-17T08:37:06.023Z,32.00
2019-02-17T08:39:37.726Z,30.50
2019-02-17T08:42:09.305Z,37.87
2019-02-17T08:44:40.935Z,39.10
2019-02-17T08:47:12.525Z,34.03
2019-02-17T08:49:45.093Z,39.90
2019-02-17T08:52:16.694Z,42.80
2019-02-17T08:54:48.277Z,37.63
2019-02-17T08:57:19.870Z,30.80
2019-02-17T08:59:51.458Z,28.20
2019-02-17T09:02:23.035Z,23.27
2019-02-17T09:04:54.613Z,29.37
2019-02-17T09:07:26.229Z,26.37
2019-02-17T09:09:57.817Z,29.97
2019-02-17T09:12:29.455Z,31.43
2019-02-17T09:15:01.026Z,32.53
2019-02-17T09:17:34.718Z,31.03
2019-02-17T09:20:08.027Z,24.10
2019-02-17T09:22:42.498Z,27.63
2019-02-17T09:25:14.426Z,23.50
2019-02-17T09:27:46.019Z,26.00
2019-02-17T09:30:18.255Z,20.50
2019-02-17T09:32:49.877Z,24.53
2019-02-17T09:35:21.438Z,26.97
2019-02-17T09:37:53.163Z,24.67
2019-02-17T09:40:24.758Z,23.93
2019-02-17T09:42:57.710Z,24.10
2019-02-17T09:45:29.225Z,24.00
2019-02-17T09:48:02.621Z,22.80
2019-02-17T09:50:34.248Z,22.60
2019-02-17T09:53:08.893Z,23.17
2019-02-17T09:55:40.533Z,23.07
2019-02-17T09:58:12.644Z,25.97
2019-02-17T10:00:44.272Z,23.30
2019-02-17T10:03:15.834Z,22.63
2019-02-17T10:05:47.470Z,23.80
2019-02-17T10:08:20.105Z,20.43
2019-02-17T10:10:51.733Z,22.13
2019-02-17T10:13:23.323Z,21.10
2019-02-17T10:15:54.933Z,23.30
2019-02-17T10:18:26.504Z,21.33
2019-02-17T10:20:59.171Z,21.00
2019-02-17T10:23:30.748Z,21.47
2019-02-17T10:26:02.352Z,21.47
2019-02-17T10:28:42.099Z,20.80
2019-02-17T10:31:07.363Z,21.03
2019-02-17T10:33:40.582Z,22.37
2019-02-17T10:36:14.273Z,21.90
2019-02-17T10:38:45.901Z,21.30
2019-02-17T10:41:17.483Z,19.60
2019-02-17T10:43:49.187Z,19.40
2019-02-17T10:46:20.923Z,24.60
2019-02-17T10:48:52.501Z,21.47
2019-02-17T10:51:26.453Z,23.80
2019-02-17T10:53:57.575Z,20.30
2019-02-17T10:56:29.166Z,17.70
2019-02-17T10:59:00.812Z,15.87
2019-02-17T11:01:32.411Z,15.93
2019-02-17T11:04:09.925Z,16.40
2019-02-17T11:06:41.549Z,17.00
2019-02-17T11:09:19.251Z,17.63
2019-02-17T11:11:51.452Z,17.23
2019-02-17T11:14:23.063Z,17.87
2019-02-17T11:16:55.716Z,19.80
2019-02-17T11:19:27.355Z,17.17
2019-02-17T11:21:58.935Z,17.77
2019-02-17T11:24:30.545Z,18.90
2019-02-17T11:27:02.101Z,16.40
2019-02-17T11:29:33.740Z,18.20
2019-02-17T11:32:05.333Z,19.60
2019-02-17T11:34:36.914Z,19.73
2019-02-17T11:37:08.494Z,17.37
2019-02-17T11:39:40.117Z,18.70
2019-02-17T11:42:11.691Z,18.83
2019-02-17T11:44:43.350Z,19.30
2019-02-17T11:47:14.945Z,21.40
2019-02-17T11:49:46.581Z,17.37
2019-02-17T11:52:18.150Z,19.03
2019-02-17T11:54:49.774Z,18.13
2019-02-17T11:57:21.356Z,18.70
2019-02-17T11:59:53.089Z,21.43
2019-02-17T12:02:25.481Z,17.43
2019-02-17T12:04:57.207Z,16.80
2019-02-17T12:07:28.827Z,19.73
2019-02-17T12:10:01.494Z,18.37
2019-02-17T12:12:33.155Z,17.63
2019-02-17T12:15:06.375Z,20.93
2019-02-17T12:17:37.974Z,18.40
2019-02-17T12:20:34.918Z,17.40
2019-02-17T12:23:10.912Z,16.37
2019-02-17T12:25:53.464Z,18.80
2019-02-17T12:28:33.502Z,20.30
2019-02-17T12:31:05.116Z,18.57
2019-02-17T12:33:36.760Z,21.20
2019-02-17T12:36:08.393Z,18.20
2019-02-17T12:38:41.601Z,19.97
2019-02-17T12:41:13.194Z,18.20
2019-02-17T12:43:44.768Z,20.27
2019-02-17T12:46:16.375Z,16.00
2019-02-17T12:48:48.085Z,19.47
2019-02-17T12:51:19.789Z,19.10
2019-02-17T12:53:51.477Z,16.73
2019-02-17T12:56:24.131Z,15.50
2019-02-17T12:58:55.734Z,16.13
2019-02-17T13:01:27.338Z,17.17
2019-02-17T13:03:58.968Z,16.10
2019-02-17T13:06:30.595Z,19.07
2019-02-17T13:09:02.199Z,16.93
2019-02-17T13:11:34.924Z,17.40
2019-02-17T13:14:06.674Z,17.70
2019-02-17T13:16:38.251Z,16.03
2019-02-17T13:19:09.877Z,15.57
2019-02-17T13:21:41.439Z,17.60
2019-02-17T13:24:13.039Z,17.77
2019-02-17T13:26:44.612Z,18.20
2019-02-17T13:29:16.237Z,16.30
2019-02-17T13:31:48.018Z,17.17
2019-02-17T13:34:19.669Z,17.00
2019-02-17T13:36:51.374Z,15.80
2019-02-17T13:39:23.011Z,19.43
2019-02-17T13:41:54.617Z,18.60
2019-02-17T13:44:26.239Z,15.80
2019-02-17T13:46:57.817Z,15.00
2019-02-17T13:49:29.490Z,16.20
2019-02-17T13:52:01.076Z,17.70
2019-02-17T13:54:32.688Z,16.37
2019-02-17T13:57:04.253Z,16.70
2019-02-17T13:59:35.869Z,15.17
2019-02-17T14:02:07.517Z,14.40
2019-02-17T14:04:39.114Z,16.67
2019-02-17T14:07:10.768Z,16.03
2019-02-17T14:09:42.424Z,18.03
2019-02-17T14:12:15.075Z,20.80
2019-02-17T14:14:47.008Z,13.73
2019-02-17T14:17:18.825Z,13.77
2019-02-17T14:19:50.443Z,14.87
2019-02-17T14:22:22.049Z,14.17
2019-02-17T14:24:53.672Z,14.43
2019-02-17T14:27:25.391Z,17.23
2019-02-17T14:29:57.011Z,15.87
2019-02-17T14:32:28.720Z,15.17
2019-02-17T14:35:00.443Z,14.07
2019-02-17T14:37:32.050Z,14.27
2019-02-17T14:40:03.729Z,17.90
2019-02-17T14:42:36.852Z,14.10
2019-02-17T14:45:08.986Z,18.33
2019-02-17T14:47:40.586Z,15.10
2019-02-17T14:50:12.518Z,18.00
2019-02-17T14:52:44.163Z,13.97
2019-02-17T14:55:17.052Z,15.50
2019-02-17T14:57:48.682Z,13.00
2019-02-17T15:00:20.317Z,13.20
2019-02-17T15:02:52.171Z,12.37
2019-02-17T15:05:23.755Z,14.93
2019-02-17T15:07:55.473Z,13.20
2019-02-17T15:10:30.448Z,12.70
2019-02-17T15:13:02.167Z,12.80
2019-02-17T15:15:33.811Z,16.47
2019-02-17T15:18:07.975Z,14.13
2019-02-17T15:20:41.211Z,13.00
2019-02-17T15:23:12.789Z,10.77
2019-02-17T15:25:49.693Z,14.70
2019-02-17T15:28:21.467Z,10.33
2019-02-17T15:30:53.566Z,10.80
2019-02-17T15:33:25.243Z,10.90
2019-02-17T15:35:58.646Z,10.83
2019-02-17T15:38:30.277Z,10.47
2019-02-17T15:41:08.269Z,9.47
2019-02-17T15:43:43.907Z,10.27
2019-02-17T15:46:18.237Z,10.10
2019-02-17T15:48:59.889Z,12.20
2019-02-17T15:51:31.470Z,9.40
2019-02-17T15:54:06.009Z,11.33
2019-02-17T15:56:41.724Z,10.10
2019-02-17T15:59:18.381Z,10.70
2019-02-17T16:01:51.294Z,10.30
2019-02-17T16:04:28.539Z,13.07
2019-02-17T16:06:56.338Z,9.10
2019-02-17T16:09:30.286Z,11.57
2019-02-17T16:12:01.868Z,10.33
2019-02-17T16:14:33.592Z,15.07
2019-02-17T16:17:09.666Z,13.37
2019-02-17T16:19:41.683Z,11.35
2019-02-17T16:22:15.580Z,14.30
2019-02-17T16:24:47.202Z,19.73
2019-02-17T16:27:18.833Z,11.20
2019-02-17T16:29:50.607Z,9.97
2019-02-17T16:32:22.165Z,10.60
2019-02-17T16:34:53.752Z,8.10
2019-02-17T16:37:25.716Z,10.27
2019-02-17T16:40:01.141Z,10.43
2019-02-17T16:42:38.079Z,9.67
2019-02-17T16:45:16.623Z,8.20
2019-02-17T16:47:48.307Z,10.90
2019-02-17T16:50:27.889Z,10.20
2019-02-17T16:52:59.481Z,11.73
2019-02-17T16:55:38.366Z,10.07
2019-02-17T16:58:10.069Z,10.90
2019-02-17T17:00:46.388Z,9.60
2019-02-17T17:03:18.016Z,12.73
2019-02-17T17:05:49.695Z,13.83
2019-02-17T17:08:21.361Z,15.10
2019-02-17T17:10:52.965Z,14.93
2019-02-17T17:13:28.094Z,12.80
2019-02-17T17:16:04.120Z,14.00
2019-02-17T17:18:37.196Z,15.20
2019-02-17T17:21:10.109Z,14.37
2019-02-17T17:23:41.713Z,12.60
2019-02-17T17:26:14.654Z,14.17
2019-02-17T17:28:47.792Z,20.87
2019-02-17T17:31:27.065Z,16.20
2019-02-17T17:34:01.058Z,14.30
2019-02-17T17:36:34.591Z,14.20
2019-02-17T17:39:07.487Z,13.20
2019-02-17T17:41:46.154Z,16.47
2019-02-17T17:44:17.725Z,16.17
2019-02-17T17:46:49.384Z,13.67
2019-02-17T17:49:21.002Z,15.50
2019-02-17T17:51:54.150Z,16.43
2019-02-17T17:54:30.831Z,19.13
2019-02-17T17:57:07.024Z,17.50
2019-02-17T17:59:38.712Z,16.83
2019-02-17T18:02:15.420Z,17.73
2019-02-17T18:04:50.027Z,19.30
2019-02-17T18:07:25.183Z,19.20
2019-02-17T18:10:03.993Z,16.80
2019-02-17T18:12:38.883Z,16.57
2019-02-17T18:15:13.825Z,21.37
2019-02-17T18:17:53.819Z,19.13
2019-02-17T18:20:23.126Z,19.20
2019-02-17T18:22:57.954Z,16.43
2019-02-17T18:25:29.566Z,17.47
2019-02-17T18:28:01.339Z,18.50
2019-02-17T18:30:33.040Z,15.70
2019-02-17T18:33:07.501Z,14.90
2019-02-17T18:35:39.173Z,17.57
2019-02-17T18:38:13.953Z,12.90
2019-02-17T18:40:47.848Z,12.60
2019-02-17T18:43:21.775Z,17.73
2019-02-17T18:45:53.425Z,20.80
2019-02-17T18:48:25.039Z,12.53
2019-02-17T18:50:59.439Z,15.70
2019-02-17T18:53:34.104Z,14.90
2019-02-17T18:56:05.801Z,12.80
2019-02-17T18:58:40.471Z,13.00
2019-02-17T19:01:12.296Z,16.37
2019-02-17T19:03:44.140Z,14.80
2019-02-17T19:06:18.619Z,12.73
2019-02-17T19:08:50.548Z,18.77
2019-02-17T19:11:23.832Z,13.60
2019-02-17T19:13:57.021Z,18.60
2019-02-17T19:16:33.190Z,21.00
2019-02-17T19:19:04.815Z,16.80
2019-02-17T19:21:36.533Z,16.60
2019-02-17T19:24:10.287Z,14.20
2019-02-17T19:26:41.836Z,22.80
2019-02-17T19:29:25.486Z,22.10
2019-02-17T19:31:57.073Z,17.63
2019-02-17T19:34:28.742Z,17.43
2019-02-17T19:37:02.147Z,19.83
2019-02-17T19:39:33.766Z,17.87
2019-02-17T19:42:06.091Z,15.87
2019-02-17T19:44:41.770Z,15.70
2019-02-17T19:47:13.340Z,15.90
2019-02-17T19:49:44.961Z,24.20
2019-02-17T19:52:16.601Z,21.03
2019-02-17T19:54:50.541Z,24.27
2019-02-17T19:57:22.275Z,21.17
2019-02-17T19:59:59.854Z,19.53
2019-02-17T20:02:50.616Z,14.00
2019-02-17T20:05:25.287Z,15.50
2019-02-17T20:07:57.965Z,13.77
2019-02-17T20:10:34.499Z,13.43
2019-02-17T20:13:08.415Z,14.60
2019-02-17T20:15:40.245Z,15.33
2019-02-17T20:18:14.280Z,15.10
2019-02-17T20:20:46.989Z,18.17
2019-02-17T20:23:20.354Z,14.80
2019-02-17T20:25:59.308Z,14.17
2019-02-17T20:28:40.840Z,18.00
2019-02-17T20:31:06.657Z,17.13
2019-02-17T20:33:42.329Z,17.80
2019-02-17T20:36:18.389Z,19.03
2019-02-17T20:38:50.006Z,14.83
2019-02-17T20:41:22.756Z,17.63
2019-02-17T20:43:54.537Z,39.50
2019-02-17T20:46:26.111Z,20.93
2019-02-17T20:49:05.104Z,21.43
2019-02-17T20:51:36.714Z,19.70
2019-02-17T20:54:12.499Z,19.63
2019-02-17T20:56:44.107Z,15.83
2019-02-17T20:59:16.804Z,15.77
2019-02-17T21:01:49.748Z,17.13
2019-02-17T21:04:24.505Z,15.53
2019-02-17T21:06:56.122Z,15.50
2019-02-17T21:09:28.860Z,15.60
2019-02-17T21:12:00.455Z,18.23
2019-02-17T21:14:32.099Z,17.17
2019-02-17T21:17:03.788Z,17.17
2019-02-17T21:19:35.362Z,17.07
2019-02-17T21:22:07.092Z,15.30
2019-02-17T21:24:38.674Z,16.07
2019-02-17T21:27:10.290Z,17.70
2019-02-17T21:29:41.994Z,21.47
2019-02-17T21:32:16.536Z,18.43
2019-02-17T21:34:47.144Z,21.23
2019-02-17T21:37:18.754Z,21.43
2019-02-17T21:39:53.512Z,19.27
2019-02-17T21:42:25.153Z,18.23
2019-02-17T21:44:59.245Z,20.83
2019-02-17T21:47:32.887Z,19.30
2019-02-17T21:50:07.149Z,19.37
2019-02-17T21:52:42.213Z,17.13
2019-02-17T21:55:15.515Z,21.90
2019-02-17T21:57:48.732Z,20.00
2019-02-17T22:00:22.553Z,20.50
2019-02-17T22:02:54.157Z,18.70
2019-02-17T22:05:27.449Z,22.77
2019-02-17T22:07:58.986Z,21.70
2019-02-17T22:10:32.995Z,22.13
2019-02-17T22:13:06.218Z,20.90
2019-02-17T22:15:44.227Z,22.20
2019-02-17T22:18:17.443Z,19.13
2019-02-17T22:20:51.789Z,19.90
2019-02-17T22:23:23.546Z,20.80
2019-02-17T22:25:58.074Z,24.63
2019-02-17T22:28:29.658Z,22.73
2019-02-17T22:31:02.631Z,20.90
2019-02-17T22:33:37.133Z,17.60
2019-02-17T22:36:09.094Z,19.42
2019-02-17T22:38:43.056Z,22.00
2019-02-17T22:41:14.618Z,17.80
2019-02-17T22:43:46.233Z,19.90
2019-02-17T22:46:17.795Z,20.43
2019-02-17T22:48:52.809Z,15.75
2019-02-17T22:51:26.114Z,21.10
2019-02-17T22:53:58.054Z,21.37
2019-02-17T22:56:29.935Z,20.62
2019-02-17T22:59:04.424Z,23.43
2019-02-17T23:01:40.308Z,16.45
2019-02-17T23:04:15.186Z,18.48
2019-02-17T23:06:53.744Z,23.98
2019-02-17T23:09:23.584Z,21.12
2019-02-17T23:12:03.545Z,17.13
2019-02-17T23:14:38.809Z,16.62
2019-02-17T23:17:15.620Z,22.13
2019-02-17T23:19:49.993Z,21.67
2019-02-17T23:22:24.806Z,16.67
2019-02-17T23:24:56.942Z,16.57
2019-02-17T23:27:28.612Z,16.73
2019-02-17T23:30:00.468Z,21.12
2019-02-17T23:32:33.654Z,25.50
2019-02-17T23:35:05.532Z,22.30
2019-02-17T23:37:37.119Z,14.93
2019-02-17T23:40:10.415Z,18.80
2019-02-17T23:42:43.382Z,17.60
2019-02-17T23:45:15.279Z,18.30
2019-02-17T23:47:47.123Z,20.88
2019-02-17T23:50:18.988Z,18.40
2019-02-17T23:52:54.406Z,19.37
2019-02-17T23:55:28.425Z,16.97
2019-02-17T23:58:04.168Z,14.45
